sensor_id;sensor_type;location;lat;lon;timestamp;temperature;humidity
16076;DHT22;8142;48.242;11.644;2023-05-01T00:00:54;11.00;99.90
16076;DHT22;8142;48.242;11.644;2023-05-01T00:03:20;11.10;99.90
16076;DHT22;8142;48.242;11.644;2023-05-01T00:05:46;11.10;99.90
16076;DHT22;8142;48.242;11.644;2023-05-01T00:08:12;11.10;99.90
16076;DHT22;8142;48.242;11.644;2023-05-01T00:10:38;11.10;99.90
16076;DHT22;8142;48.242;11.644;2023-05-01T00:13:04;11.10;99.90
16076;DHT22;8142;48.242;11.644;2023-05-01T00:15:31;11.00;99.90
16076;DHT22;8142;48.242;11.644;2023-05-01T00:17:57;11.00;99.90
16076;DHT22;8142;48.242;11.644;2023-05-01T00:20:30;10.90;99.90
16076;DHT22;8142;48.242;11.644;2023-05-01T00:22:56;10.90;99.90
16076;DHT22;8142;48.242;11.644;2023-05-01T00:25:22;10.90;99.90
16076;DHT22;8142;48.242;11.644;2023-05-01T00:27:48;10.80;99.90
16076;DHT22;8142;48.242;11.644;2023-05-01T00:30:14;10.80;99.90
16076;DHT22;8142;48.242;11.644;2023-05-01T00:32:40;10.80;99.90
16076;DHT22;8142;48.242;11.644;2023-05-01T00:35:06;10.90;99.90
16076;DHT22;8142;48.242;11.644;2023-05-01T00:37:32;11.00;99.90
16076;DHT22;8142;48.242;11.644;2023-05-01T00:39:58;11.00;99.90
16076;DHT22;8142;48.242;11.644;2023-05-01T00:42:23;11.00;99.90
16076;DHT22;8142;48.242;11.644;2023-05-01T00:44:49;10.90;99.90
16076;DHT22;8142;48.242;11.644;2023-05-01T00:47:15;10.90;99.90
16076;DHT22;8142;48.242;11.644;2023-05-01T00:49:42;10.90;99.90
16076;DHT22;8142;48.242;11.644;2023-05-01T00:52:09;10.80;99.90
16076;DHT22;8142;48.242;11.644;2023-05-01T00:54:36;10.80;99.90
16076;DHT22;8142;48.242;11.644;2023-05-01T00:57:02;10.80;99.90
16076;DHT22;8142;48.242;11.644;2023-05-01T00:59:28;10.70;99.90
16076;DHT22;8142;48.242;11.644;2023-05-01T01:01:53;10.70;99.90
16076;DHT22;8142;48.242;11.644;2023-05-01T01:04:20;10.90;99.90
16076;DHT22;8142;48.242;11.644;2023-05-01T01:07:02;11.00;99.90
16076;DHT22;8142;48.242;11.644;2023-05-01T01:14:32;10.90;99.90
16076;DHT22;8142;48.242;11.644;2023-05-01T01:17:22;10.90;99.90
16076;DHT22;8142;48.242;11.644;2023-05-01T01:22:56;10.80;99.90
16076;DHT22;8142;48.242;11.644;2023-05-01T01:26:04;10.70;99.90
16076;DHT22;8142;48.242;11.644;2023-05-01T01:31:10;10.60;99.90
16076;DHT22;8142;48.242;11.644;2023-05-01T01:34:01;10.70;99.90
16076;DHT22;8142;48.242;11.644;2023-05-01T01:36:33;10.80;99.90
16076;DHT22;8142;48.242;11.644;2023-05-01T01:39:12;10.80;99.90
16076;DHT22;8142;48.242;11.644;2023-05-01T01:41:40;10.80;99.90
16076;DHT22;8142;48.242;11.644;2023-05-01T01:44:36;10.80;99.90
16076;DHT22;8142;48.242;11.644;2023-05-01T01:47:06;10.80;99.90
16076;DHT22;8142;48.242;11.644;2023-05-01T01:49:34;10.70;99.90
16076;DHT22;8142;48.242;11.644;2023-05-01T01:52:03;10.60;99.90
16076;DHT22;8142;48.242;11.644;2023-05-01T01:54:36;10.60;99.90
16076;DHT22;8142;48.242;11.644;2023-05-01T01:57:04;10.50;99.90
16076;DHT22;8142;48.242;11.644;2023-05-01T01:59:33;10.50;99.90
16076;DHT22;8142;48.242;11.644;2023-05-01T02:01:59;10.40;99.90
16076;DHT22;8142;48.242;11.644;2023-05-01T02:04:27;10.60;99.90
16076;DHT22;8142;48.242;11.644;2023-05-01T02:06:55;10.70;99.90
16076;DHT22;8142;48.242;11.644;2023-05-01T02:09:23;10.70;99.90
16076;DHT22;8142;48.242;11.644;2023-05-01T02:11:53;10.70;99.90
16076;DHT22;8142;48.242;11.644;2023-05-01T02:14:21;10.70;99.90
16076;DHT22;8142;48.242;11.644;2023-05-01T02:16:48;10.60;99.90
16076;DHT22;8142;48.242;11.644;2023-05-01T02:19:15;10.60;99.90
16076;DHT22;8142;48.242;11.644;2023-05-01T02:21:42;10.50;99.90
16076;DHT22;8142;48.242;11.644;2023-05-01T02:24:09;10.40;99.90
16076;DHT22;8142;48.242;11.644;2023-05-01T02:26:49;10.40;99.90
16076;DHT22;8142;48.242;11.644;2023-05-01T02:29:16;10.30;99.90
16076;DHT22;8142;48.242;11.644;2023-05-01T02:31:42;10.30;99.90
16076;DHT22;8142;48.242;11.644;2023-05-01T02:34:08;10.40;99.90
16076;DHT22;8142;48.242;11.644;2023-05-01T02:36:34;10.50;99.90
16076;DHT22;8142;48.242;11.644;2023-05-01T02:39:00;10.50;99.90
16076;DHT22;8142;48.242;11.644;2023-05-01T02:41:26;10.50;99.90
16076;DHT22;8142;48.242;11.644;2023-05-01T02:43:57;10.50;99.90
16076;DHT22;8142;48.242;11.644;2023-05-01T02:46:25;10.40;99.90
16076;DHT22;8142;48.242;11.644;2023-05-01T02:48:53;10.30;99.90
16076;DHT22;8142;48.242;11.644;2023-05-01T02:51:20;10.30;99.90
16076;DHT22;8142;48.242;11.644;2023-05-01T02:53:48;10.20;99.90
16076;DHT22;8142;48.242;11.644;2023-05-01T02:56:14;10.20;99.90
16076;DHT22;8142;48.242;11.644;2023-05-01T02:58:41;10.10;99.90
16076;DHT22;8142;48.242;11.644;2023-05-01T03:01:07;10.00;99.90
16076;DHT22;8142;48.242;11.644;2023-05-01T03:03:32;9.90;99.90
16076;DHT22;8142;48.242;11.644;2023-05-01T03:05:58;9.80;99.90
16076;DHT22;8142;48.242;11.644;2023-05-01T03:08:24;9.50;99.90
16076;DHT22;8142;48.242;11.644;2023-05-01T03:10:50;9.20;99.90
16076;DHT22;8142;48.242;11.644;2023-05-01T03:13:16;9.00;99.90
16076;DHT22;8142;48.242;11.644;2023-05-01T03:15:43;8.80;99.90
16076;DHT22;8142;48.242;11.644;2023-05-01T03:18:09;8.70;99.90
16076;DHT22;8142;48.242;11.644;2023-05-01T03:20:35;8.50;99.90
16076;DHT22;8142;48.242;11.644;2023-05-01T03:23:01;8.30;99.90
16076;DHT22;8142;48.242;11.644;2023-05-01T03:25:27;8.20;99.90
16076;DHT22;8142;48.242;11.644;2023-05-01T03:27:52;8.10;99.90
16076;DHT22;8142;48.242;11.644;2023-05-01T03:30:18;8.10;99.90
16076;DHT22;8142;48.242;11.644;2023-05-01T03:32:44;8.10;99.90
16076;DHT22;8142;48.242;11.644;2023-05-01T03:35:10;8.00;99.90
16076;DHT22;8142;48.242;11.644;2023-05-01T03:37:36;8.00;99.90
16076;DHT22;8142;48.242;11.644;2023-05-01T03:40:02;7.90;99.90
16076;DHT22;8142;48.242;11.644;2023-05-01T03:42:28;7.80;99.90
16076;DHT22;8142;48.242;11.644;2023-05-01T03:44:54;7.70;99.90
16076;DHT22;8142;48.242;11.644;2023-05-01T03:47:20;7.70;99.90
16076;DHT22;8142;48.242;11.644;2023-05-01T03:49:46;7.60;99.90
16076;DHT22;8142;48.242;11.644;2023-05-01T03:52:12;7.50;99.90
16076;DHT22;8142;48.242;11.644;2023-05-01T03:54:38;7.50;99.90
16076;DHT22;8142;48.242;11.644;2023-05-01T03:57:04;7.50;99.90
16076;DHT22;8142;48.242;11.644;2023-05-01T03:59:29;7.40;99.90
16076;DHT22;8142;48.242;11.644;2023-05-01T04:01:55;7.40;99.90
16076;DHT22;8142;48.242;11.644;2023-05-01T04:04:21;7.40;99.90
16076;DHT22;8142;48.242;11.644;2023-05-01T04:06:47;7.40;99.90
16076;DHT22;8142;48.242;11.644;2023-05-01T04:09:14;7.40;99.90
16076;DHT22;8142;48.242;11.644;2023-05-01T04:11:40;7.40;99.90
16076;DHT22;8142;48.242;11.644;2023-05-01T04:14:06;7.40;99.90
16076;DHT22;8142;48.242;11.644;2023-05-01T04:16:32;7.40;99.90
16076;DHT22;8142;48.242;11.644;2023-05-01T04:18:58;7.30;99.90
16076;DHT22;8142;48.242;11.644;2023-05-01T04:21:24;7.30;99.90
16076;DHT22;8142;48.242;11.644;2023-05-01T04:23:50;7.30;99.90
16076;DHT22;8142;48.242;11.644;2023-05-01T04:26:16;7.30;99.90
16076;DHT22;8142;48.242;11.644;2023-05-01T04:28:42;7.30;99.90
16076;DHT22;8142;48.242;11.644;2023-05-01T04:31:09;7.30;99.90
16076;DHT22;8142;48.242;11.644;2023-05-01T04:33:35;7.40;99.90
16076;DHT22;8142;48.242;11.644;2023-05-01T04:36:00;7.60;99.90
16076;DHT22;8142;48.242;11.644;2023-05-01T04:38:26;7.80;99.90
16076;DHT22;8142;48.242;11.644;2023-05-01T04:40:53;8.00;99.90
16076;DHT22;8142;48.242;11.644;2023-05-01T04:43:19;8.10;99.90
16076;DHT22;8142;48.242;11.644;2023-05-01T04:45:45;8.20;99.90
16076;DHT22;8142;48.242;11.644;2023-05-01T04:48:12;8.30;99.90
16076;DHT22;8142;48.242;11.644;2023-05-01T04:50:37;8.40;99.90
16076;DHT22;8142;48.242;11.644;2023-05-01T04:53:03;8.50;99.90
16076;DHT22;8142;48.242;11.644;2023-05-01T04:55:29;8.50;99.90
16076;DHT22;8142;48.242;11.644;2023-05-01T04:57:55;8.60;99.90
16076;DHT22;8142;48.242;11.644;2023-05-01T05:00:22;8.60;99.90
16076;DHT22;8142;48.242;11.644;2023-05-01T05:02:48;8.70;99.90
16076;DHT22;8142;48.242;11.644;2023-05-01T05:05:14;8.80;99.90
16076;DHT22;8142;48.242;11.644;2023-05-01T05:07:40;8.80;99.90
16076;DHT22;8142;48.242;11.644;2023-05-01T05:10:06;8.90;99.90
16076;DHT22;8142;48.242;11.644;2023-05-01T05:12:32;8.90;99.90
16076;DHT22;8142;48.242;11.644;2023-05-01T05:14:57;9.00;99.90
16076;DHT22;8142;48.242;11.644;2023-05-01T05:17:23;9.00;99.90
16076;DHT22;8142;48.242;11.644;2023-05-01T05:19:49;9.10;99.90
16076;DHT22;8142;48.242;11.644;2023-05-01T05:22:15;9.10;99.90
16076;DHT22;8142;48.242;11.644;2023-05-01T05:24:41;9.20;99.90
16076;DHT22;8142;48.242;11.644;2023-05-01T05:27:07;9.20;99.90
16076;DHT22;8142;48.242;11.644;2023-05-01T05:29:33;9.30;99.90
16076;DHT22;8142;48.242;11.644;2023-05-01T05:32:00;9.30;99.90
16076;DHT22;8142;48.242;11.644;2023-05-01T05:34:26;9.50;99.90
16076;DHT22;8142;48.242;11.644;2023-05-01T05:36:51;9.50;99.90
16076;DHT22;8142;48.242;11.644;2023-05-01T05:39:17;9.60;99.90
16076;DHT22;8142;48.242;11.644;2023-05-01T05:41:45;9.70;99.90
16076;DHT22;8142;48.242;11.644;2023-05-01T05:44:11;9.90;99.90
16076;DHT22;8142;48.242;11.644;2023-05-01T05:46:37;10.10;99.90
16076;DHT22;8142;48.242;11.644;2023-05-01T05:49:03;10.30;99.90
16076;DHT22;8142;48.242;11.644;2023-05-01T05:51:28;10.40;99.90
16076;DHT22;8142;48.242;11.644;2023-05-01T05:53:54;10.60;99.90
16076;DHT22;8142;48.242;11.644;2023-05-01T05:56:20;10.70;99.90
16076;DHT22;8142;48.242;11.644;2023-05-01T05:58:46;10.90;99.90
16076;DHT22;8142;48.242;11.644;2023-05-01T06:01:12;11.00;99.90
16076;DHT22;8142;48.242;11.644;2023-05-01T06:03:39;11.20;99.90
16076;DHT22;8142;48.242;11.644;2023-05-01T06:06:05;11.30;99.90
16076;DHT22;8142;48.242;11.644;2023-05-01T06:08:32;11.40;99.90
16076;DHT22;8142;48.242;11.644;2023-05-01T06:10:59;11.50;99.90
16076;DHT22;8142;48.242;11.644;2023-05-01T06:13:25;11.50;99.90
16076;DHT22;8142;48.242;11.644;2023-05-01T06:15:51;11.50;99.90
16076;DHT22;8142;48.242;11.644;2023-05-01T06:18:17;11.50;99.90
16076;DHT22;8142;48.242;11.644;2023-05-01T06:20:43;11.40;99.90
16076;DHT22;8142;48.242;11.644;2023-05-01T06:23:10;11.40;99.90
16076;DHT22;8142;48.242;11.644;2023-05-01T06:25:38;11.40;99.90
16076;DHT22;8142;48.242;11.644;2023-05-01T06:28:06;11.40;99.90
16076;DHT22;8142;48.242;11.644;2023-05-01T06:30:32;11.30;99.90
16076;DHT22;8142;48.242;11.644;2023-05-01T06:32:58;11.30;99.90
16076;DHT22;8142;48.242;11.644;2023-05-01T06:35:24;11.20;99.90
16076;DHT22;8142;48.242;11.644;2023-05-01T06:37:50;11.10;99.90
16076;DHT22;8142;48.242;11.644;2023-05-01T06:40:16;11.00;99.90
16076;DHT22;8142;48.242;11.644;2023-05-01T06:42:42;10.90;99.90
16076;DHT22;8142;48.242;11.644;2023-05-01T06:45:08;10.80;99.90
16076;DHT22;8142;48.242;11.644;2023-05-01T06:47:34;10.70;99.90
16076;DHT22;8142;48.242;11.644;2023-05-01T06:50:00;10.70;99.90
16076;DHT22;8142;48.242;11.644;2023-05-01T06:52:26;10.60;99.90
16076;DHT22;8142;48.242;11.644;2023-05-01T06:54:52;10.60;99.90
16076;DHT22;8142;48.242;11.644;2023-05-01T06:57:18;10.60;99.90
16076;DHT22;8142;48.242;11.644;2023-05-01T06:59:44;10.60;99.90
16076;DHT22;8142;48.242;11.644;2023-05-01T07:02:10;10.60;99.90
16076;DHT22;8142;48.242;11.644;2023-05-01T07:04:36;10.60;99.90
16076;DHT22;8142;48.242;11.644;2023-05-01T07:07:02;10.70;99.90
16076;DHT22;8142;48.242;11.644;2023-05-01T07:09:28;10.70;99.90
16076;DHT22;8142;48.242;11.644;2023-05-01T07:11:54;10.80;99.90
16076;DHT22;8142;48.242;11.644;2023-05-01T07:14:22;10.90;99.90
16076;DHT22;8142;48.242;11.644;2023-05-01T07:16:48;11.00;99.90
16076;DHT22;8142;48.242;11.644;2023-05-01T07:19:14;11.10;99.90
16076;DHT22;8142;48.242;11.644;2023-05-01T07:21:40;11.10;99.90
16076;DHT22;8142;48.242;11.644;2023-05-01T07:24:06;11.20;99.90
16076;DHT22;8142;48.242;11.644;2023-05-01T07:26:32;11.20;99.90
16076;DHT22;8142;48.242;11.644;2023-05-01T07:28:58;11.30;99.90
16076;DHT22;8142;48.242;11.644;2023-05-01T07:31:24;11.30;99.90
16076;DHT22;8142;48.242;11.644;2023-05-01T07:33:50;11.40;99.90
16076;DHT22;8142;48.242;11.644;2023-05-01T07:36:16;11.50;99.90
16076;DHT22;8142;48.242;11.644;2023-05-01T07:38:44;11.50;99.90
16076;DHT22;8142;48.242;11.644;2023-05-01T07:41:10;11.50;99.90
16076;DHT22;8142;48.242;11.644;2023-05-01T07:43:36;11.60;99.90
16076;DHT22;8142;48.242;11.644;2023-05-01T07:46:02;11.60;99.90
16076;DHT22;8142;48.242;11.644;2023-05-01T07:48:28;11.60;99.90
16076;DHT22;8142;48.242;11.644;2023-05-01T07:50:54;11.60;99.90
16076;DHT22;8142;48.242;11.644;2023-05-01T07:53:21;11.70;99.90
16076;DHT22;8142;48.242;11.644;2023-05-01T07:55:47;11.80;99.90
16076;DHT22;8142;48.242;11.644;2023-05-01T07:58:14;11.80;99.90
16076;DHT22;8142;48.242;11.644;2023-05-01T08:00:41;11.80;99.90
16076;DHT22;8142;48.242;11.644;2023-05-01T08:03:10;11.90;99.90
16076;DHT22;8142;48.242;11.644;2023-05-01T08:05:39;11.90;99.90
16076;DHT22;8142;48.242;11.644;2023-05-01T08:08:05;11.90;99.90
16076;DHT22;8142;48.242;11.644;2023-05-01T08:10:30;11.90;99.90
16076;DHT22;8142;48.242;11.644;2023-05-01T08:12:56;12.00;99.90
16076;DHT22;8142;48.242;11.644;2023-05-01T08:15:23;12.10;99.90
16076;DHT22;8142;48.242;11.644;2023-05-01T08:17:48;12.10;99.90
16076;DHT22;8142;48.242;11.644;2023-05-01T08:20:15;12.20;99.90
16076;DHT22;8142;48.242;11.644;2023-05-01T08:22:41;12.30;99.90
16076;DHT22;8142;48.242;11.644;2023-05-01T08:25:07;12.30;99.90
16076;DHT22;8142;48.242;11.644;2023-05-01T08:27:33;12.40;99.90
16076;DHT22;8142;48.242;11.644;2023-05-01T08:29:59;12.40;99.90
16076;DHT22;8142;48.242;11.644;2023-05-01T08:32:25;12.50;99.90
16076;DHT22;8142;48.242;11.644;2023-05-01T08:34:51;12.50;99.90
16076;DHT22;8142;48.242;11.644;2023-05-01T08:37:17;12.50;99.90
16076;DHT22;8142;48.242;11.644;2023-05-01T08:39:44;12.60;99.90
16076;DHT22;8142;48.242;11.644;2023-05-01T08:42:09;12.60;99.90
16076;DHT22;8142;48.242;11.644;2023-05-01T08:44:39;12.60;99.90
16076;DHT22;8142;48.242;11.644;2023-05-01T08:47:15;12.60;99.90
16076;DHT22;8142;48.242;11.644;2023-05-01T08:49:42;12.60;99.90
16076;DHT22;8142;48.242;11.644;2023-05-01T08:52:13;12.60;99.90
16076;DHT22;8142;48.242;11.644;2023-05-01T08:54:42;12.60;99.90
16076;DHT22;8142;48.242;11.644;2023-05-01T08:57:10;12.60;99.90
16076;DHT22;8142;48.242;11.644;2023-05-01T08:59:37;12.70;99.90
16076;DHT22;8142;48.242;11.644;2023-05-01T09:02:06;12.60;99.90
16076;DHT22;8142;48.242;11.644;2023-05-01T09:04:34;12.60;99.90
16076;DHT22;8142;48.242;11.644;2023-05-01T09:07:01;12.60;99.90
16076;DHT22;8142;48.242;11.644;2023-05-01T09:09:30;12.60;99.90
16076;DHT22;8142;48.242;11.644;2023-05-01T09:12:00;12.60;99.90
16076;DHT22;8142;48.242;11.644;2023-05-01T09:14:30;12.60;99.90
16076;DHT22;8142;48.242;11.644;2023-05-01T09:16:59;12.60;99.90
16076;DHT22;8142;48.242;11.644;2023-05-01T09:19:26;12.60;99.90
16076;DHT22;8142;48.242;11.644;2023-05-01T09:21:54;12.60;99.90
16076;DHT22;8142;48.242;11.644;2023-05-01T09:24:24;12.50;99.90
16076;DHT22;8142;48.242;11.644;2023-05-01T09:26:50;12.50;99.90
16076;DHT22;8142;48.242;11.644;2023-05-01T09:29:45;12.50;99.90
16076;DHT22;8142;48.242;11.644;2023-05-01T09:32:17;12.60;99.90
16076;DHT22;8142;48.242;11.644;2023-05-01T09:34:46;12.60;99.90
16076;DHT22;8142;48.242;11.644;2023-05-01T09:37:24;12.60;99.90
16076;DHT22;8142;48.242;11.644;2023-05-01T09:40:07;12.60;99.90
16076;DHT22;8142;48.242;11.644;2023-05-01T09:42:36;12.60;99.90
16076;DHT22;8142;48.242;11.644;2023-05-01T09:45:04;12.60;99.90
16076;DHT22;8142;48.242;11.644;2023-05-01T09:47:30;12.60;99.90
16076;DHT22;8142;48.242;11.644;2023-05-01T09:49:58;12.60;99.90
16076;DHT22;8142;48.242;11.644;2023-05-01T09:52:26;12.60;99.90
16076;DHT22;8142;48.242;11.644;2023-05-01T09:55:15;12.60;99.90
16076;DHT22;8142;48.242;11.644;2023-05-01T09:57:43;12.60;99.90
16076;DHT22;8142;48.242;11.644;2023-05-01T10:00:11;12.50;99.90
16076;DHT22;8142;48.242;11.644;2023-05-01T10:02:38;12.50;99.90
16076;DHT22;8142;48.242;11.644;2023-05-01T10:05:05;12.50;99.90
16076;DHT22;8142;48.242;11.644;2023-05-01T10:07:32;12.50;99.90
16076;DHT22;8142;48.242;11.644;2023-05-01T10:10:14;12.50;99.90
16076;DHT22;8142;48.242;11.644;2023-05-01T10:12:40;12.40;99.90
16076;DHT22;8142;48.242;11.644;2023-05-01T10:15:06;12.40;99.90
16076;DHT22;8142;48.242;11.644;2023-05-01T10:17:34;12.30;99.90
16076;DHT22;8142;48.242;11.644;2023-05-01T10:20:00;12.30;99.90
16076;DHT22;8142;48.242;11.644;2023-05-01T10:22:26;12.30;99.90
16076;DHT22;8142;48.242;11.644;2023-05-01T10:24:53;12.20;99.90
16076;DHT22;8142;48.242;11.644;2023-05-01T10:27:19;12.20;99.90
16076;DHT22;8142;48.242;11.644;2023-05-01T10:29:47;12.10;99.90
16076;DHT22;8142;48.242;11.644;2023-05-01T10:32:17;12.10;99.90
16076;DHT22;8142;48.242;11.644;2023-05-01T10:34:56;12.10;99.90
16076;DHT22;8142;48.242;11.644;2023-05-01T10:37:28;12.10;99.90
16076;DHT22;8142;48.242;11.644;2023-05-01T10:39:57;12.10;99.90
16076;DHT22;8142;48.242;11.644;2023-05-01T10:42:22;12.10;99.90
16076;DHT22;8142;48.242;11.644;2023-05-01T10:44:48;12.00;99.90
16076;DHT22;8142;48.242;11.644;2023-05-01T10:52:29;12.00;99.90
16076;DHT22;8142;48.242;11.644;2023-05-01T10:55:30;12.00;99.90
16076;DHT22;8142;48.242;11.644;2023-05-01T10:57:56;12.10;99.90
16076;DHT22;8142;48.242;11.644;2023-05-01T11:00:22;12.00;99.90
16076;DHT22;8142;48.242;11.644;2023-05-01T11:02:48;12.00;99.90
16076;DHT22;8142;48.242;11.644;2023-05-01T11:05:14;12.00;99.90
16076;DHT22;8142;48.242;11.644;2023-05-01T11:07:40;12.00;99.90
16076;DHT22;8142;48.242;11.644;2023-05-01T11:10:24;12.00;99.90
16076;DHT22;8142;48.242;11.644;2023-05-01T11:12:51;12.00;99.90
16076;DHT22;8142;48.242;11.644;2023-05-01T11:15:28;11.90;99.90
16076;DHT22;8142;48.242;11.644;2023-05-01T11:17:55;11.90;99.90
16076;DHT22;8142;48.242;11.644;2023-05-01T11:22:52;11.90;99.90
16076;DHT22;8142;48.242;11.644;2023-05-01T11:25:22;11.90;99.90
16076;DHT22;8142;48.242;11.644;2023-05-01T11:27:50;11.80;99.90
16076;DHT22;8142;48.242;11.644;2023-05-01T11:30:18;11.80;99.90
16076;DHT22;8142;48.242;11.644;2023-05-01T11:32:46;11.80;99.90
16076;DHT22;8142;48.242;11.644;2023-05-01T11:35:20;11.70;99.90
16076;DHT22;8142;48.242;11.644;2023-05-01T11:37:47;11.70;99.90
16076;DHT22;8142;48.242;11.644;2023-05-01T11:40:23;11.70;99.90
16076;DHT22;8142;48.242;11.644;2023-05-01T11:42:50;11.70;99.90
16076;DHT22;8142;48.242;11.644;2023-05-01T11:45:17;11.70;99.90
16076;DHT22;8142;48.242;11.644;2023-05-01T11:47:43;11.70;99.90
16076;DHT22;8142;48.242;11.644;2023-05-01T11:50:09;11.80;99.90
16076;DHT22;8142;48.242;11.644;2023-05-01T11:52:49;11.70;99.90
16076;DHT22;8142;48.242;11.644;2023-05-01T11:55:18;11.70;99.90
16076;DHT22;8142;48.242;11.644;2023-05-01T11:57:49;11.70;99.90
16076;DHT22;8142;48.242;11.644;2023-05-01T12:03:11;11.80;99.90
16076;DHT22;8142;48.242;11.644;2023-05-01T12:05:42;11.80;99.90
16076;DHT22;8142;48.242;11.644;2023-05-01T12:08:18;11.80;99.90
16076;DHT22;8142;48.242;11.644;2023-05-01T12:10:55;11.80;99.90
16076;DHT22;8142;48.242;11.644;2023-05-01T12:13:22;11.90;99.90
16076;DHT22;8142;48.242;11.644;2023-05-01T12:15:50;11.90;99.90
16076;DHT22;8142;48.242;11.644;2023-05-01T12:18:17;11.90;99.90
16076;DHT22;8142;48.242;11.644;2023-05-01T12:20:48;11.90;99.90
16076;DHT22;8142;48.242;11.644;2023-05-01T12:23:18;12.00;99.90
16076;DHT22;8142;48.242;11.644;2023-05-01T12:25:45;12.00;99.90
16076;DHT22;8142;48.242;11.644;2023-05-01T12:28:18;12.00;99.90
16076;DHT22;8142;48.242;11.644;2023-05-01T12:30:48;12.00;99.90
16076;DHT22;8142;48.242;11.644;2023-05-01T12:33:16;12.00;99.90
16076;DHT22;8142;48.242;11.644;2023-05-01T12:35:43;12.00;99.90
16076;DHT22;8142;48.242;11.644;2023-05-01T12:38:21;12.10;99.90
16076;DHT22;8142;48.242;11.644;2023-05-01T12:40:55;12.10;99.90
16076;DHT22;8142;48.242;11.644;2023-05-01T12:43:31;12.00;99.90
16076;DHT22;8142;48.242;11.644;2023-05-01T12:45:57;12.10;99.90
16076;DHT22;8142;48.242;11.644;2023-05-01T12:48:24;12.20;99.90
16076;DHT22;8142;48.242;11.644;2023-05-01T12:50:50;12.20;99.90
16076;DHT22;8142;48.242;11.644;2023-05-01T12:53:21;12.20;99.90
16076;DHT22;8142;48.242;11.644;2023-05-01T12:55:56;12.20;99.90
16076;DHT22;8142;48.242;11.644;2023-05-01T12:58:22;12.10;99.90
16076;DHT22;8142;48.242;11.644;2023-05-01T13:00:51;12.10;99.90
16076;DHT22;8142;48.242;11.644;2023-05-01T13:03:27;12.00;99.90
16076;DHT22;8142;48.242;11.644;2023-05-01T13:06:04;11.90;99.90
16076;DHT22;8142;48.242;11.644;2023-05-01T13:08:37;11.90;99.90
16076;DHT22;8142;48.242;11.644;2023-05-01T13:11:14;12.00;99.90
16076;DHT22;8142;48.242;11.644;2023-05-01T13:13:43;12.00;99.90
16076;DHT22;8142;48.242;11.644;2023-05-01T13:16:15;12.10;99.90
16076;DHT22;8142;48.242;11.644;2023-05-01T13:18:49;12.20;99.90
16076;DHT22;8142;48.242;11.644;2023-05-01T13:21:21;12.20;99.90
16076;DHT22;8142;48.242;11.644;2023-05-01T13:23:55;12.30;99.90
16076;DHT22;8142;48.242;11.644;2023-05-01T13:26:25;12.40;99.90
16076;DHT22;8142;48.242;11.644;2023-05-01T13:28:52;12.50;99.90
16076;DHT22;8142;48.242;11.644;2023-05-01T13:31:21;12.50;99.90
16076;DHT22;8142;48.242;11.644;2023-05-01T13:34:00;12.60;99.90
16076;DHT22;8142;48.242;11.644;2023-05-01T13:36:48;12.60;99.90
16076;DHT22;8142;48.242;11.644;2023-05-01T13:39:21;12.70;99.90
16076;DHT22;8142;48.242;11.644;2023-05-01T13:41:50;12.70;99.90
16076;DHT22;8142;48.242;11.644;2023-05-01T13:44:44;12.80;99.90
16076;DHT22;8142;48.242;11.644;2023-05-01T13:47:20;12.90;99.90
16076;DHT22;8142;48.242;11.644;2023-05-01T13:49:47;12.90;99.90
16076;DHT22;8142;48.242;11.644;2023-05-01T13:52:15;12.90;99.90
16076;DHT22;8142;48.242;11.644;2023-05-01T13:54:42;12.90;99.90
16076;DHT22;8142;48.242;11.644;2023-05-01T13:57:09;13.00;99.90
16076;DHT22;8142;48.242;11.644;2023-05-01T13:59:40;13.00;99.90
16076;DHT22;8142;48.242;11.644;2023-05-01T14:02:17;13.10;99.90
16076;DHT22;8142;48.242;11.644;2023-05-01T14:04:45;13.20;99.90
16076;DHT22;8142;48.242;11.644;2023-05-01T14:07:18;13.20;99.90
16076;DHT22;8142;48.242;11.644;2023-05-01T14:09:55;13.30;99.90
16076;DHT22;8142;48.242;11.644;2023-05-01T14:12:30;13.30;99.90
16076;DHT22;8142;48.242;11.644;2023-05-01T14:14:56;13.40;99.90
16076;DHT22;8142;48.242;11.644;2023-05-01T14:17:29;13.40;99.90
16076;DHT22;8142;48.242;11.644;2023-05-01T14:19:56;13.40;99.90
16076;DHT22;8142;48.242;11.644;2023-05-01T14:22:22;13.40;99.90
16076;DHT22;8142;48.242;11.644;2023-05-01T14:24:48;13.50;99.90
16076;DHT22;8142;48.242;11.644;2023-05-01T14:27:14;13.50;99.90
16076;DHT22;8142;48.242;11.644;2023-05-01T14:29:42;13.50;99.90
16076;DHT22;8142;48.242;11.644;2023-05-01T14:32:09;13.50;99.90
16076;DHT22;8142;48.242;11.644;2023-05-01T14:34:40;13.60;99.90
16076;DHT22;8142;48.242;11.644;2023-05-01T14:37:07;13.60;99.90
16076;DHT22;8142;48.242;11.644;2023-05-01T14:39:33;13.60;99.90
16076;DHT22;8142;48.242;11.644;2023-05-01T14:41:59;13.60;99.90
16076;DHT22;8142;48.242;11.644;2023-05-01T14:44:28;13.60;99.90
16076;DHT22;8142;48.242;11.644;2023-05-01T14:46:54;13.60;99.90
16076;DHT22;8142;48.242;11.644;2023-05-01T14:49:22;13.70;99.90
16076;DHT22;8142;48.242;11.644;2023-05-01T14:51:52;13.70;99.90
16076;DHT22;8142;48.242;11.644;2023-05-01T14:54:19;13.70;99.90
16076;DHT22;8142;48.242;11.644;2023-05-01T14:56:46;13.80;99.90
16076;DHT22;8142;48.242;11.644;2023-05-01T14:59:13;13.70;99.90
16076;DHT22;8142;48.242;11.644;2023-05-01T15:01:39;13.80;99.90
16076;DHT22;8142;48.242;11.644;2023-05-01T15:04:05;13.80;99.90
16076;DHT22;8142;48.242;11.644;2023-05-01T15:06:41;13.80;99.90
16076;DHT22;8142;48.242;11.644;2023-05-01T15:09:07;13.70;99.90
16076;DHT22;8142;48.242;11.644;2023-05-01T15:11:33;13.70;99.90
16076;DHT22;8142;48.242;11.644;2023-05-01T15:13:59;13.70;99.90
16076;DHT22;8142;48.242;11.644;2023-05-01T15:16:25;13.60;99.90
16076;DHT22;8142;48.242;11.644;2023-05-01T15:18:51;13.60;99.90
16076;DHT22;8142;48.242;11.644;2023-05-01T15:21:17;13.50;99.90
16076;DHT22;8142;48.242;11.644;2023-05-01T15:23:42;13.50;99.90
16076;DHT22;8142;48.242;11.644;2023-05-01T15:26:10;13.50;99.90
16076;DHT22;8142;48.242;11.644;2023-05-01T15:28:35;13.50;99.90
16076;DHT22;8142;48.242;11.644;2023-05-01T15:31:01;13.40;99.90
16076;DHT22;8142;48.242;11.644;2023-05-01T15:33:27;13.40;99.90
16076;DHT22;8142;48.242;11.644;2023-05-01T15:35:53;13.40;99.90
16076;DHT22;8142;48.242;11.644;2023-05-01T15:38:18;13.40;99.90
16076;DHT22;8142;48.242;11.644;2023-05-01T15:40:48;13.30;99.90
16076;DHT22;8142;48.242;11.644;2023-05-01T15:43:14;13.20;99.90
16076;DHT22;8142;48.242;11.644;2023-05-01T15:45:40;13.20;99.90
16076;DHT22;8142;48.242;11.644;2023-05-01T15:48:08;13.10;99.90
16076;DHT22;8142;48.242;11.644;2023-05-01T15:50:34;13.10;99.90
16076;DHT22;8142;48.242;11.644;2023-05-01T15:53:00;13.10;99.90
16076;DHT22;8142;48.242;11.644;2023-05-01T15:55:26;13.10;99.90
16076;DHT22;8142;48.242;11.644;2023-05-01T15:57:52;13.10;99.90
16076;DHT22;8142;48.242;11.644;2023-05-01T16:00:18;13.10;99.90